Time;durP1;ratioP1;P1;durP2;ratioP2;P2;SDS_P1;SDS_P2;PMS_P1;PMS_P2;Temp;Humidity;BMP_temperature;BMP_pressure;BME280_temperature;BME280_humidity;BME280_pressure;Samples;Min_cycle;Max_cycle;Signal;HPM_P1;HPM_P2
2023/08/05 00:02:19;;;;;;;7.35;4.30;;;14.60;99.90;;;;;;5092357;28;20051;-62
2023/08/05 00:04:44;;;;;;;8.73;3.92;;;14.60;99.90;;;;;;5057722;28;20040;-62
2023/08/05 00:07:10;;;;;;;8.52;4.45;;;14.60;99.90;;;;;;5073887;28;20051;-62
2023/08/05 00:09:35;;;;;;;8.63;4.40;;;14.50;99.90;;;;;;5074737;28;20053;-62
2023/08/05 00:12:01;;;;;;;7.88;4.25;;;14.50;99.90;;;;;;5092806;28;20071;-62
2023/08/05 00:14:27;;;;;;;7.32;3.70;;;14.40;99.90;;;;;;5074103;28;20032;-62
2023/08/05 00:16:52;;;;;;;8.43;5.07;;;14.40;99.90;;;;;;5074435;28;20445;-62
2023/08/05 00:19:18;;;;;;;8.57;5.07;;;14.30;99.90;;;;;;5074450;28;20032;-62
2023/08/05 00:21:44;;;;;;;6.80;4.22;;;14.30;99.90;;;;;;5073514;28;20392;-62
2023/08/05 00:24:10;;;;;;;9.93;5.13;;;14.30;99.90;;;;;;5092968;28;20078;-62
2023/08/05 00:26:36;;;;;;;9.77;4.75;;;14.30;99.90;;;;;;5092655;28;20075;-62
2023/08/05 00:29:01;;;;;;;8.95;4.50;;;14.30;99.90;;;;;;5073652;28;20040;-62
2023/08/05 00:31:27;;;;;;;7.78;4.13;;;14.20;99.90;;;;;;5074734;28;20072;-62
2023/08/05 00:33:53;;;;;;;9.10;4.70;;;14.20;99.90;;;;;;5092446;28;20028;-62
2023/08/05 00:36:18;;;;;;;7.30;4.82;;;14.20;99.90;;;;;;5073931;28;20381;-62
2023/08/05 00:38:44;;;;;;;9.02;5.03;;;14.20;99.90;;;;;;5057563;28;20044;-62
2023/08/05 00:41:10;;;;;;;9.13;5.32;;;14.20;99.90;;;;;;5092307;28;20035;-62
2023/08/05 00:43:35;;;;;;;10.70;5.43;;;14.20;99.90;;;;;;5073481;28;20043;-62
2023/08/05 00:46:01;;;;;;;10.82;5.03;;;14.20;99.90;;;;;;5073890;28;20044;-61
2023/08/05 00:48:27;;;;;;;8.73;4.35;;;14.20;99.90;;;;;;5074142;28;20109;-62
2023/08/05 00:50:54;;;;;;;9.25;4.80;;;14.20;99.90;;;;;;5091260;28;20043;-62
2023/08/05 00:53:24;;;;;;;7.88;4.43;;;14.20;99.90;;;;;;5074562;28;20048;-62
2023/08/05 00:55:53;;;;;;;9.48;4.82;;;14.10;99.90;;;;;;5074128;28;20040;-62
2023/08/05 00:58:22;;;;;;;8.75;4.72;;;14.10;99.90;;;;;;5073173;28;20489;-62
2023/08/05 01:00:48;;;;;;;10.13;5.10;;;14.10;99.90;;;;;;5073713;28;20082;-62
2023/08/05 01:03:14;;;;;;;11.20;5.50;;;14.10;99.90;;;;;;5074244;28;20135;-61
2023/08/05 01:05:41;;;;;;;10.20;4.82;;;14.00;99.90;;;;;;5072912;28;20496;-62
2023/08/05 01:08:07;;;;;;;8.07;4.85;;;14.00;99.90;;;;;;5074091;28;20058;-62
2023/08/05 01:10:34;;;;;;;7.60;5.07;;;14.00;99.90;;;;;;5056557;28;20101;-62
2023/08/05 01:13:00;;;;;;;7.93;4.90;;;14.00;99.90;;;;;;5091719;28;20051;-62
2023/08/05 01:15:26;;;;;;;8.20;4.40;;;14.00;99.90;;;;;;5092234;28;20039;-62
2023/08/05 01:17:55;;;;;;;9.30;5.55;;;14.00;99.90;;;;;;5072610;28;20055;-62
2023/08/05 01:20:32;;;;;;;8.85;6.05;;;14.10;99.90;;;;;;5092178;28;20120;-62
2023/08/05 01:23:07;;;;;;;11.02;5.32;;;14.10;99.90;;;;;;5091916;28;20043;-62
2023/08/05 01:25:33;;;;;;;;;;;14.10;99.90;;;;;;5073923;28;20425;-62
2023/08/05 01:28:01;;;;;;;12.18;5.22;;;14.10;99.90;;;;;;5073635;28;19977;-62
2023/08/05 01:30:29;;;;;;;9.90;4.10;;;14.10;99.90;;;;;;5092240;28;20067;-62
2023/08/05 01:32:57;;;;;;;9.55;5.55;;;14.10;99.90;;;;;;5073127;28;20415;-62
2023/08/05 01:35:23;;;;;;;8.85;5.13;;;14.20;99.90;;;;;;5073916;28;20067;-62
2023/08/05 01:37:49;;;;;;;8.07;4.53;;;14.20;99.90;;;;;;5073391;28;20044;-62
2023/08/05 01:40:15;;;;;;;7.68;4.47;;;14.20;99.90;;;;;;5073153;28;20408;-62
2023/08/05 01:42:41;;;;;;;8.88;4.68;;;14.20;99.90;;;;;;5073370;28;20036;-61
2023/08/05 01:45:07;;;;;;;10.20;5.22;;;14.20;99.90;;;;;;5073795;28;20047;-62
2023/08/05 01:47:33;;;;;;;8.98;4.43;;;14.20;99.90;;;;;;5072452;28;20048;-62
2023/08/05 01:49:58;;;;;;;9.35;5.00;;;14.20;99.90;;;;;;5091215;28;20111;-62
2023/08/05 01:52:24;;;;;;;11.30;4.68;;;14.10;99.90;;;;;;5091848;28;20044;-62
2023/08/05 01:54:50;;;;;;;8.02;4.68;;;14.10;99.90;;;;;;5072538;28;20396;-61
2023/08/05 01:57:16;;;;;;;9.23;5.32;;;14.10;99.90;;;;;;5091760;28;20052;-62
2023/08/05 01:59:41;;;;;;;8.50;4.22;;;14.10;99.90;;;;;;5072585;28;20039;-62
2023/08/05 02:02:07;;;;;;;8.30;4.25;;;14.10;99.90;;;;;;5073768;28;20446;-62
2023/08/05 02:04:33;;;;;;;9.80;5.32;;;14.00;99.90;;;;;;5073293;28;20040;-62
2023/08/05 02:06:58;;;;;;;8.25;5.07;;;14.10;99.90;;;;;;5090781;28;20040;-62
2023/08/05 02:09:24;;;;;;;9.63;4.80;;;14.10;99.90;;;;;;5074037;28;20401;-62
2023/08/05 02:11:50;;;;;;;8.05;4.07;;;14.10;99.90;;;;;;5093897;28;20036;-62
2023/08/05 02:14:15;;;;;;;9.32;5.35;;;14.10;99.90;;;;;;5076653;28;20040;-62
2023/08/05 02:16:41;;;;;;;8.88;4.63;;;14.00;99.90;;;;;;5077103;28;20040;-62
2023/08/05 02:19:07;;;;;;;9.45;4.88;;;14.00;99.90;;;;;;5077157;28;20443;-62
2023/08/05 02:21:32;;;;;;;8.10;4.65;;;14.00;99.90;;;;;;5075953;28;20040;-63
2023/08/05 02:23:58;;;;;;;7.82;4.60;;;14.00;99.90;;;;;;5076889;28;20032;-64
2023/08/05 02:26:24;;;;;;;10.30;5.05;;;13.90;99.90;;;;;;5076755;28;20047;-63
2023/08/05 02:28:49;;;;;;;8.43;4.70;;;13.90;99.90;;;;;;5093898;28;20534;-63
2023/08/05 02:31:15;;;;;;;10.25;4.82;;;13.90;99.90;;;;;;5060148;28;20044;-63
2023/08/05 02:33:42;;;;;;;7.63;4.10;;;13.90;99.90;;;;;;5094207;28;20040;-63
2023/08/05 02:36:08;;;;;;;7.65;5.10;;;14.00;99.90;;;;;;5059300;28;20469;-63
2023/08/05 02:38:33;;;;;;;10.25;5.50;;;13.90;99.90;;;;;;5076018;28;20046;-64
2023/08/05 02:40:59;;;;;;;7.68;4.65;;;14.00;99.90;;;;;;5074252;28;20113;-64
2023/08/05 02:43:25;;;;;;;8.85;4.38;;;14.10;99.90;;;;;;5056261;28;20076;-64
2023/08/05 02:45:57;;;;;;;10.23;5.13;;;14.10;99.90;;;;;;5073846;28;20040;-64
2023/08/05 02:48:24;;;;;;;11.60;5.30;;;14.10;99.90;;;;;;5074492;28;20080;-64
2023/08/05 02:50:51;;;;;;;6.88;4.50;;;14.10;99.90;;;;;;5074941;28;20062;-64
2023/08/05 02:53:17;;;;;;;8.82;5.00;;;14.10;99.90;;;;;;5076411;28;20515;-64
2023/08/05 02:55:43;;;;;;;8.75;4.80;;;14.10;99.90;;;;;;5075776;28;20040;-63
2023/08/05 02:58:09;;;;;;;9.88;4.75;;;14.20;99.90;;;;;;5075583;28;20089;-63
2023/08/05 03:00:35;;;;;;;10.00;4.93;;;14.20;99.90;;;;;;5094077;28;20043;-63
2023/08/05 03:03:01;;;;;;;10.15;5.07;;;14.20;99.90;;;;;;5075100;28;20504;-63
2023/08/05 03:05:27;;;;;;;10.32;5.13;;;14.20;99.90;;;;;;5060114;28;20043;-64
2023/08/05 03:07:52;;;;;;;8.93;4.82;;;14.20;99.90;;;;;;5075426;28;20081;-64
2023/08/05 03:10:18;;;;;;;9.35;5.13;;;14.20;99.90;;;;;;5075462;28;20048;-63
2023/08/05 03:12:44;;;;;;;7.97;4.43;;;14.20;99.90;;;;;;5075722;28;20495;-64
2023/08/05 03:15:10;;;;;;;8.98;4.60;;;14.30;99.90;;;;;;5076089;28;20036;-64
2023/08/05 03:17:35;;;;;;;9.35;5.32;;;14.30;99.90;;;;;;5058098;28;20040;-62
2023/08/05 03:20:06;;;;;;;11.00;4.97;;;14.30;99.90;;;;;;5075719;28;20036;-62
2023/08/05 03:22:34;;;;;;;10.02;5.45;;;14.40;99.90;;;;;;5093577;28;20044;-62
2023/08/05 03:25:00;;;;;;;11.18;5.20;;;14.40;99.90;;;;;;5075182;28;20067;-61
2023/08/05 03:27:25;;;;;;;8.90;5.13;;;14.40;99.90;;;;;;5075757;28;20397;-62
2023/08/05 03:29:51;;;;;;;11.80;5.60;;;14.40;99.90;;;;;;5075537;28;20039;-62
2023/08/05 03:32:17;;;;;;;10.60;5.03;;;14.40;99.90;;;;;;5074845;28;20036;-62
2023/08/05 03:34:42;;;;;;;10.10;5.45;;;14.40;99.90;;;;;;5093329;28;20052;-62
2023/08/05 03:37:08;;;;;;;9.55;5.93;;;14.40;99.90;;;;;;5093614;28;20051;-62
2023/08/05 03:39:34;;;;;;;10.02;5.80;;;14.40;99.90;;;;;;5092620;28;20039;-62
2023/08/05 03:41:59;;;;;;;9.77;6.47;;;14.50;99.90;;;;;;5075382;28;20052;-62
2023/08/05 03:44:25;;;;;;;12.98;6.80;;;14.50;99.90;;;;;;5075395;28;20101;-62
2023/08/05 03:46:51;;;;;;;8.85;5.70;;;14.50;99.90;;;;;;5057000;28;20048;-62
2023/08/05 03:49:17;;;;;;;10.52;6.45;;;14.60;99.90;;;;;;5075256;28;20178;-62
2023/08/05 03:51:42;;;;;;;13.18;7.38;;;14.60;99.90;;;;;;5092439;28;20039;-62
2023/08/05 03:54:08;;;;;;;9.95;6.40;;;14.60;99.90;;;;;;5092609;28;20119;-62
2023/08/05 03:56:34;;;;;;;11.13;6.70;;;14.60;99.90;;;;;;5074742;28;20085;-62
2023/08/05 03:58:59;;;;;;;11.45;6.75;;;14.60;99.90;;;;;;5074840;28;20043;-62
2023/08/05 04:01:26;;;;;;;10.95;6.38;;;14.60;99.90;;;;;;5092488;28;20046;-62
2023/08/05 04:03:52;;;;;;;9.63;6.60;;;14.60;99.90;;;;;;5074825;28;20546;-62
2023/08/05 04:06:21;;;;;;;11.48;6.20;;;14.60;99.90;;;;;;5074267;28;20040;-62
2023/08/05 04:08:54;;;;;;;12.40;7.18;;;14.60;99.90;;;;;;5073976;28;20054;-62
2023/08/05 04:11:20;;;;;;;13.63;6.60;;;14.60;99.90;;;;;;5093048;28;20472;-62
2023/08/05 04:13:47;;;;;;;12.60;7.30;;;14.60;99.90;;;;;;5073765;28;20119;-62
2023/08/05 04:16:16;;;;;;;12.48;6.70;;;14.60;99.90;;;;;;5093051;28;20040;-62
2023/08/05 04:18:43;;;;;;;9.70;6.40;;;14.60;99.90;;;;;;5074785;28;20392;-62
2023/08/05 04:21:10;;;;;;;9.90;6.18;;;14.60;99.90;;;;;;5092320;28;20073;-62
2023/08/05 04:23:36;;;;;;;10.10;6.68;;;14.60;99.90;;;;;;5074212;28;20071;-62
2023/08/05 04:26:05;;;;;;;8.52;5.40;;;14.60;99.90;;;;;;5074575;28;20082;-62
2023/08/05 04:28:31;;;;;;;10.07;6.38;;;14.70;99.90;;;;;;5073279;28;20675;-62
2023/08/05 04:30:57;;;;;;;10.40;5.38;;;14.70;99.90;;;;;;5074210;28;20040;-62
2023/08/05 04:33:25;;;;;;;11.68;6.82;;;14.70;99.90;;;;;;5092208;28;20033;-62
2023/08/05 04:35:51;;;;;;;10.95;6.15;;;14.70;99.90;;;;;;5073291;28;20040;-62
2023/08/05 04:38:17;;;;;;;9.85;5.30;;;14.70;99.90;;;;;;5074585;28;20044;-62
2023/08/05 04:40:44;;;;;;;8.85;5.07;;;14.70;99.90;;;;;;5074157;28;20047;-62
2023/08/05 04:43:10;;;;;;;9.13;4.78;;;14.70;99.90;;;;;;5091894;28;20039;-62
2023/08/05 04:45:36;;;;;;;9.90;4.82;;;14.80;99.90;;;;;;5073992;28;20072;-62
2023/08/05 04:48:04;;;;;;;8.55;4.80;;;14.80;99.90;;;;;;5057705;28;20055;-62
2023/08/05 04:50:29;;;;;;;8.55;4.57;;;14.90;99.90;;;;;;5073251;28;20040;-62
2023/08/05 04:52:55;;;;;;;10.48;4.85;;;14.90;99.90;;;;;;5074172;28;20088;-62
2023/08/05 04:55:21;;;;;;;7.90;4.53;;;15.00;99.90;;;;;;5074461;28;20389;-62
2023/08/05 04:57:55;;;;;;;7.30;3.97;;;15.10;99.90;;;;;;5091136;28;20111;-62
2023/08/05 05:00:20;;;;;;;8.73;4.28;;;15.10;99.90;;;;;;5074572;28;20191;-62
2023/08/05 05:02:48;;;;;;;7.65;4.10;;;15.10;99.90;;;;;;5091223;28;20508;-62
2023/08/05 05:05:14;;;;;;;6.55;3.90;;;15.20;99.90;;;;;;5074303;28;20047;-62
2023/08/05 05:07:40;;;;;;;7.75;4.40;;;15.20;99.90;;;;;;5073368;28;20040;-62
2023/08/05 05:10:06;;;;;;;8.25;3.83;;;15.20;99.90;;;;;;5091552;28;20481;-62
2023/08/05 05:12:32;;;;;;;9.93;4.45;;;15.20;99.90;;;;;;5057533;28;20369;-62
2023/08/05 05:14:57;;;;;;;9.00;4.38;;;15.30;99.90;;;;;;5073503;28;20039;-62
2023/08/05 05:17:23;;;;;;;7.60;3.70;;;15.30;99.90;;;;;;5073729;28;20105;-62
2023/08/05 05:19:49;;;;;;;10.63;3.85;;;15.40;99.90;;;;;;5091597;28;20076;-62
2023/08/05 05:22:18;;;;;;;9.95;3.90;;;15.40;99.90;;;;;;5092397;28;20075;-62
2023/08/05 05:24:45;;;;;;;9.38;3.45;;;15.40;99.90;;;;;;5073228;28;20430;-62
2023/08/05 05:27:13;;;;;;;7.97;4.05;;;15.40;99.90;;;;;;5073991;28;20079;-62
2023/08/05 05:29:39;;;;;;;6.63;3.17;;;15.50;99.90;;;;;;5073919;28;20044;-62
2023/08/05 05:32:06;;;;;;;6.72;2.85;;;15.40;99.90;;;;;;5073364;28;20036;-62
2023/08/05 05:34:31;;;;;;;6.93;2.90;;;15.40;99.90;;;;;;5092229;28;20119;-62
2023/08/05 05:36:57;;;;;;;7.45;2.45;;;15.40;99.90;;;;;;5057266;28;20068;-62
2023/08/05 05:39:23;;;;;;;7.28;3.17;;;15.40;99.90;;;;;;5072554;28;20032;-62
2023/08/05 05:41:48;;;;;;;8.55;3.40;;;15.50;99.90;;;;;;5091293;28;20044;-62
2023/08/05 05:44:14;;;;;;;8.40;3.13;;;15.50;99.90;;;;;;5073436;28;20119;-62
2023/08/05 05:46:40;;;;;;;8.82;3.90;;;15.70;99.90;;;;;;5093392;28;20177;-62
2023/08/05 05:49:06;;;;;;;6.07;2.47;;;15.80;99.90;;;;;;5095689;28;20116;-62
2023/08/05 05:51:34;;;;;;;7.57;3.35;;;16.00;99.90;;;;;;5077559;28;20460;-62
2023/08/05 05:54:00;;;;;;;8.68;2.45;;;16.10;99.90;;;;;;5076606;28;20044;-62
2023/08/05 05:56:25;;;;;;;9.77;2.95;;;16.30;99.90;;;;;;5058459;28;20032;-62
2023/08/05 05:58:51;;;;;;;8.88;3.65;;;16.40;99.90;;;;;;5091839;28;20154;-62
2023/08/05 06:01:17;;;;;;;6.38;3.10;;;16.60;99.90;;;;;;5093036;28;20044;-62
2023/08/05 06:03:43;;;;;;;7.53;3.35;;;16.60;99.90;;;;;;5092579;28;20075;-62
2023/08/05 06:06:09;;;;;;;6.93;2.92;;;16.70;99.90;;;;;;5064086;28;20041;-62
2023/08/05 06:08:35;;;;;;;8.57;3.13;;;16.70;99.90;;;;;;5054117;28;20037;-62
2023/08/05 06:11:03;;;;;;;6.10;2.63;;;16.70;99.90;;;;;;5084611;28;20539;-62
2023/08/05 06:13:29;;;;;;;10.35;3.17;;;16.70;99.90;;;;;;5071431;28;20055;-62
2023/08/05 06:15:55;;;;;;;8.88;3.08;;;16.60;99.90;;;;;;5092802;28;20040;-62
2023/08/05 06:18:20;;;;;;;6.88;2.70;;;16.50;99.90;;;;;;5093240;28;20051;-61
2023/08/05 06:20:49;;;;;;;5.68;2.63;;;16.40;99.90;;;;;;5091360;28;20044;-62
2023/08/05 06:23:15;;;;;;;5.18;2.33;;;16.40;99.90;;;;;;5074721;28;20515;-62
2023/08/05 06:25:41;;;;;;;6.50;2.33;;;16.30;99.90;;;;;;5082648;28;20148;-62
2023/08/05 06:28:08;;;;;;;5.53;2.38;;;16.40;99.90;;;;;;5084528;28;20036;-62
2023/08/05 06:30:34;;;;;;;6.63;2.55;;;16.40;99.90;;;;;;5088357;28;20096;-62
2023/08/05 06:33:00;;;;;;;7.28;2.88;;;16.50;99.90;;;;;;5050224;28;20043;-62
2023/08/05 06:35:26;;;;;;;6.97;2.70;;;16.50;99.90;;;;;;5071681;28;20209;-62
2023/08/05 06:37:52;;;;;;;5.55;2.60;;;16.50;99.90;;;;;;5053738;28;20532;-62
2023/08/05 06:40:18;;;;;;;5.90;3.42;;;16.50;99.90;;;;;;5052244;28;20084;-62
2023/08/05 06:42:43;;;;;;;5.35;2.65;;;16.60;99.90;;;;;;5091176;28;20123;-59
2023/08/05 06:45:10;;;;;;;7.40;3.10;;;16.60;99.90;;;;;;5073544;28;20054;-59
2023/08/05 06:47:36;;;;;;;7.40;2.90;;;16.70;99.90;;;;;;5072922;28;20118;-59
2023/08/05 06:50:07;;;;;;;6.20;2.58;;;16.70;99.90;;;;;;5073173;28;20093;-60
2023/08/05 06:52:33;;;;;;;6.05;3.00;;;16.70;99.90;;;;;;5073546;28;20044;-60
2023/08/05 06:55:03;;;;;;;7.20;2.70;;;16.80;99.90;;;;;;5073267;28;20036;-60
2023/08/05 06:57:32;;;;;;;6.63;3.20;;;16.90;99.90;;;;;;5073005;28;20492;-60
2023/08/05 06:59:58;;;;;;;6.07;2.72;;;17.00;99.90;;;;;;5072922;28;20043;-60
2023/08/05 07:02:25;;;;;;;5.20;2.42;;;17.00;99.90;;;;;;5072618;28;20056;-60
2023/08/05 07:04:52;;;;;;;4.68;2.47;;;17.10;99.90;;;;;;5066080;28;20072;-60
2023/08/05 07:07:18;;;;;;;6.72;3.17;;;17.10;99.90;;;;;;5074924;28;20039;-59
2023/08/05 07:09:44;;;;;;;6.93;2.97;;;17.10;99.90;;;;;;5071636;28;20040;-60
2023/08/05 07:12:10;;;;;;;8.35;2.88;;;17.00;99.90;;;;;;5073311;28;20104;-59
2023/08/05 07:14:36;;;;;;;6.22;2.53;;;17.10;99.90;;;;;;5070784;28;20357;-62
2023/08/05 07:17:02;;;;;;;8.45;3.22;;;17.20;99.90;;;;;;5062214;28;20063;-62
2023/08/05 07:19:28;;;;;;;7.53;2.92;;;17.20;99.90;;;;;;5052950;28;20087;-62
2023/08/05 07:21:53;;;;;;;4.85;2.45;;;17.20;99.90;;;;;;5060428;28;20390;-62
2023/08/05 07:24:19;;;;;;;6.90;2.60;;;17.30;99.90;;;;;;5054627;28;20044;-62
2023/08/05 07:26:45;;;;;;;5.35;2.58;;;17.40;99.90;;;;;;5072592;28;20128;-62
2023/08/05 07:29:11;;;;;;;7.35;2.85;;;17.30;99.90;;;;;;5081667;28;20071;-62
2023/08/05 07:31:37;;;;;;;7.65;2.70;;;17.40;99.90;;;;;;5051876;28;20513;-62
2023/08/05 07:34:04;;;;;;;8.80;2.72;;;17.40;99.90;;;;;;5059452;28;20055;-62
2023/08/05 07:36:31;;;;;;;4.45;2.08;;;17.50;99.90;;;;;;5081772;28;20048;-62
2023/08/05 07:38:58;;;;;;;7.75;2.60;;;17.50;99.90;;;;;;5065547;28;20065;-61
2023/08/05 07:41:26;;;;;;;6.53;3.05;;;17.60;99.90;;;;;;5074962;28;20040;-62
2023/08/05 07:43:57;;;;;;;6.00;2.30;;;17.60;99.90;;;;;;5071885;28;20088;-62
2023/08/05 07:46:25;;;;;;;6.28;2.72;;;17.70;99.90;;;;;;5064840;28;20059;-62
2023/08/05 07:48:52;;;;;;;5.25;2.50;;;17.70;99.90;;;;;;5065864;28;20059;-62
2023/08/05 07:51:19;;;;;;;6.47;2.60;;;17.60;99.90;;;;;;5038215;28;20039;-62
2023/08/05 07:53:48;;;;;;;7.43;2.55;;;17.60;99.90;;;;;;5070870;28;20088;-61
2023/08/05 07:56:15;;;;;;;5.03;2.50;;;17.60;99.90;;;;;;5090642;28;20071;-62
2023/08/05 07:58:46;;;;;;;5.45;2.22;;;17.70;99.90;;;;;;5071161;28;20780;-62
2023/08/05 08:01:19;;;;;;;6.32;2.42;;;17.80;99.90;;;;;;5073052;28;20075;-62
2023/08/05 08:03:46;;;;;;;6.10;2.30;;;17.90;99.90;;;;;;5071786;28;20132;-62
2023/08/05 08:06:15;;;;;;;5.43;3.03;;;18.00;99.90;;;;;;5071994;28;20114;-62
2023/08/05 08:08:41;;;;;;;5.15;2.40;;;18.00;99.90;;;;;;5072959;28;20078;-62
2023/08/05 08:11:07;;;;;;;6.72;2.35;;;18.00;99.90;;;;;;5052744;28;20486;-62
2023/08/05 08:13:32;;;;;;;5.63;2.60;;;18.10;99.90;;;;;;5067855;28;20112;-62
2023/08/05 08:15:58;;;;;;;5.90;2.83;;;18.00;99.90;;;;;;5077448;28;20070;-61
2023/08/05 08:18:24;;;;;;;6.68;2.58;;;18.00;99.90;;;;;;5068384;28;20075;-61
2023/08/05 08:20:50;;;;;;;7.93;2.90;;;18.00;99.90;;;;;;5070210;28;20047;-62
2023/08/05 08:23:16;;;;;;;6.35;2.50;;;18.00;99.90;;;;;;5055621;28;20044;-62
2023/08/05 08:25:42;;;;;;;6.68;2.72;;;18.10;99.90;;;;;;5058587;28;20478;-61
2023/08/05 08:28:07;;;;;;;6.25;2.85;;;18.20;99.90;;;;;;5050801;28;20044;-62
2023/08/05 08:30:33;;;;;;;5.43;2.40;;;18.20;99.90;;;;;;5060175;28;20036;-62
2023/08/05 08:32:59;;;;;;;4.93;2.78;;;18.20;99.90;;;;;;5087586;28;20032;-61
2023/08/05 08:35:24;;;;;;;6.28;2.63;;;18.30;99.90;;;;;;5084226;28;20040;-62
2023/08/05 08:37:50;;;;;;;4.75;2.40;;;18.30;99.90;;;;;;5089124;28;20489;-62
2023/08/05 08:40:16;;;;;;;5.80;2.22;;;18.40;99.90;;;;;;5071076;28;20389;-62
2023/08/05 08:42:42;;;;;;;5.15;2.47;;;18.50;99.90;;;;;;5069660;28;20048;-62
2023/08/05 08:45:11;;;;;;;6.50;2.80;;;18.50;99.90;;;;;;5070769;28;20044;-62
2023/08/05 08:47:37;;;;;;;6.68;2.97;;;18.60;99.90;;;;;;5066615;28;20056;-62
2023/08/05 08:50:04;;;;;;;5.57;2.63;;;18.70;99.90;;;;;;5068942;28;20603;-62
2023/08/05 08:52:31;;;;;;;7.35;2.50;;;18.80;99.90;;;;;;5068337;28;20040;-62
2023/08/05 08:54:57;;;;;;;7.80;3.00;;;18.80;99.90;;;;;;5069353;28;20086;-62
2023/08/05 08:57:23;;;;;;;6.25;3.22;;;18.80;99.90;;;;;;5070581;28;20051;-61
2023/08/05 08:59:48;;;;;;;6.95;2.33;;;18.90;99.90;;;;;;5070042;28;20045;-61
2023/08/05 09:02:23;;;;;;;5.70;2.65;;;19.00;99.90;;;;;;5069635;28;20496;-61
2023/08/05 09:04:54;;;;;;;6.13;2.95;;;19.20;99.90;;;;;;5070465;28;20048;-61
2023/08/05 09:07:26;;;;;;;5.70;2.55;;;19.20;99.90;;;;;;5070513;28;20052;-61
2023/08/05 09:09:52;;;;;;;7.70;2.60;;;19.30;99.90;;;;;;5069069;28;20040;-61
2023/08/05 09:12:18;;;;;;;6.50;3.22;;;19.30;99.90;;;;;;5070322;28;20041;-61
2023/08/05 09:14:43;;;;;;;6.07;3.08;;;19.40;99.90;;;;;;5069685;28;20036;-62
2023/08/05 09:17:14;;;;;;;6.13;2.63;;;19.40;99.90;;;;;;5069669;28;20040;-61
2023/08/05 09:19:44;;;;;;;7.80;3.25;;;19.40;99.90;;;;;;5071556;28;20453;-61
2023/08/05 09:22:10;;;;;;;5.03;2.47;;;19.30;99.90;;;;;;5074595;28;20036;-61
2023/08/05 09:24:35;;;;;;;5.93;2.88;;;19.30;99.90;;;;;;5072030;28;20046;-62
2023/08/05 09:27:01;;;;;;;4.57;2.35;;;19.20;99.90;;;;;;5075338;28;20082;-62
2023/08/05 09:29:27;;;;;;;5.65;2.65;;;19.20;99.90;;;;;;5074432;28;20037;-62
2023/08/05 09:32:04;;;;;;;5.35;2.67;;;19.30;99.90;;;;;;5072134;28;20397;-62
2023/08/05 09:34:37;;;;;;;6.85;2.40;;;19.30;99.90;;;;;;5069801;28;20564;-62
2023/08/05 09:37:04;;;;;;;6.70;2.78;;;19.50;99.90;;;;;;5056681;28;20052;-62
2023/08/05 09:39:47;;;;;;;5.50;2.58;;;19.50;99.90;;;;;;5073579;28;20040;-62
2023/08/05 09:42:26;;;;;;;6.00;2.88;;;19.50;99.90;;;;;;5074178;28;20044;-62
2023/08/05 09:44:54;;;;;;;5.05;2.60;;;19.50;99.90;;;;;;5073595;28;20114;-62
2023/08/05 09:47:23;;;;;;;6.07;2.67;;;19.60;99.90;;;;;;5073523;28;20087;-62
2023/08/05 09:49:50;;;;;;;6.60;2.70;;;19.60;99.90;;;;;;5074788;28;20036;-62
2023/08/05 09:52:17;;;;;;;5.75;2.55;;;19.70;99.90;;;;;;5073723;28;20052;-62
2023/08/05 09:54:57;;;;;;;7.43;2.47;;;19.60;99.90;;;;;;5074082;28;20102;-62
2023/08/05 09:57:24;;;;;;;4.72;2.40;;;19.60;99.90;;;;;;5074144;28;20051;-62
2023/08/05 09:59:51;;;;;;;5.30;2.35;;;19.60;99.90;;;;;;5072618;28;20044;-61
2023/08/05 10:02:24;;;;;;;4.75;2.53;;;19.50;99.90;;;;;;5065392;28;20089;-61
2023/08/05 10:04:53;;;;;;;6.77;2.63;;;19.40;99.90;;;;;;5071076;28;20049;-61
2023/08/05 10:07:23;;;;;;;6.80;2.50;;;19.40;99.90;;;;;;5065264;28;20056;-61
2023/08/05 10:09:50;;;;;;;5.22;2.65;;;19.30;99.90;;;;;;5073257;28;20087;-61
2023/08/05 10:12:22;;;;;;;6.80;2.45;;;19.30;99.90;;;;;;5070984;28;20045;-61
2023/08/05 10:14:49;;;;;;;5.28;2.58;;;19.40;99.90;;;;;;5071475;28;20148;-61
2023/08/05 10:17:16;;;;;;;5.85;2.70;;;19.40;99.90;;;;;;5072644;28;20056;-61
2023/08/05 10:19:47;;;;;;;4.97;2.03;;;19.50;99.90;;;;;;5066850;28;20052;-60
2023/08/05 10:22:12;;;;;;;5.40;3.00;;;19.60;99.90;;;;;;5063966;28;20384;-60
2023/08/05 10:24:55;;;;;;;7.18;2.47;;;19.70;99.90;;;;;;5066992;28;20036;-60
2023/08/05 10:27:37;;;;;;;5.80;2.40;;;19.80;99.90;;;;;;5063470;28;20497;-60
2023/08/05 10:30:16;;;;;;;6.40;2.47;;;19.80;99.90;;;;;;5073106;28;20044;-60
2023/08/05 10:32:55;;;;;;;7.50;2.67;;;20.00;99.90;;;;;;5073379;28;20086;-60
2023/08/05 10:35:40;;;;;;;3.95;2.03;;;20.10;99.90;;;;;;5073928;28;20165;-60
2023/08/05 10:38:21;;;;;;;5.32;2.58;;;20.30;99.90;;;;;;5074101;28;20351;-61
2023/08/05 10:41:01;;;;;;;4.75;2.63;;;20.40;99.90;;;;;;5072211;28;20102;-61
2023/08/05 10:43:33;;;;;;;5.38;2.40;;;20.50;99.90;;;;;;5073250;28;20146;-62
2023/08/05 10:46:09;;;;;;;5.55;2.20;;;20.40;99.90;;;;;;5072596;28;20110;-61
2023/08/05 10:48:39;;;;;;;5.63;2.42;;;20.50;99.90;;;;;;5072104;28;20047;-62
2023/08/05 10:51:19;;;;;;;5.43;2.53;;;20.50;99.90;;;;;;5071321;28;20404;-61
2023/08/05 10:53:51;;;;;;;4.20;2.25;;;20.50;99.90;;;;;;5071859;28;20036;-61
2023/08/05 10:56:17;;;;;;;5.88;2.47;;;20.50;99.90;;;;;;5071339;28;20041;-61
2023/08/05 10:58:50;;;;;;;5.55;2.75;;;20.60;99.90;;;;;;5055993;28;20036;-61
2023/08/05 11:01:16;;;;;;;5.90;2.67;;;20.60;99.90;;;;;;5071852;28;20041;-62
2023/08/05 11:03:47;;;;;;;5.80;2.53;;;20.60;99.90;;;;;;5073609;28;20500;-61
2023/08/05 11:06:14;;;;;;;6.35;2.92;;;20.60;99.90;;;;;;5072821;28;20048;-61
2023/08/05 11:08:43;;;;;;;6.07;2.85;;;20.50;99.90;;;;;;5071366;28;20045;-62
2023/08/05 11:11:10;;;;;;;4.80;2.50;;;20.50;99.90;;;;;;5072581;28;20086;-61
2023/08/05 11:13:42;;;;;;;5.28;2.28;;;20.50;99.90;;;;;;5072423;28;20047;-61
2023/08/05 11:16:13;;;;;;;6.47;2.67;;;20.40;99.90;;;;;;5073184;28;20045;-61
2023/08/05 11:18:41;;;;;;;5.82;2.60;;;20.30;99.90;;;;;;5055666;28;20090;-61
2023/08/05 11:21:14;;;;;;;4.32;2.30;;;20.20;99.90;;;;;;5072514;28;20049;-61
2023/08/05 11:23:45;;;;;;;6.03;2.70;;;20.20;99.90;;;;;;5071020;28;20047;-62
2023/08/05 11:26:11;;;;;;;4.50;2.50;;;20.20;99.90;;;;;;5073885;28;20090;-61
2023/08/05 11:28:47;;;;;;;6.13;2.95;;;20.10;99.90;;;;;;5071936;28;20040;-61
2023/08/05 11:31:23;;;;;;;5.90;2.50;;;20.10;99.90;;;;;;5072769;28;20037;-61
2023/08/05 11:33:49;;;;;;;5.07;2.75;;;20.10;99.90;;;;;;5071646;28;20044;-61
2023/08/05 11:36:15;;;;;;;4.90;2.70;;;20.10;99.90;;;;;;5072124;28;20076;-62
2023/08/05 11:38:42;;;;;;;8.40;3.20;;;20.10;99.90;;;;;;5070656;28;20079;-61
2023/08/05 11:41:07;;;;;;;7.68;3.00;;;20.00;99.90;;;;;;5072281;28;20048;-61
2023/08/05 11:43:35;;;;;;;6.28;3.30;;;20.00;99.90;;;;;;5071211;28;20504;-62
2023/08/05 11:46:01;;;;;;;5.35;2.90;;;19.90;99.90;;;;;;5071362;28;20069;-61
2023/08/05 11:48:28;;;;;;;5.95;3.38;;;20.00;99.90;;;;;;5071882;28;20490;-61
2023/08/05 11:50:58;;;;;;;6.20;3.33;;;20.10;99.90;;;;;;5072131;28;20049;-62
2023/08/05 11:53:25;;;;;;;6.32;2.72;;;20.20;99.90;;;;;;5071947;28;20048;-61
2023/08/05 11:55:50;;;;;;;5.90;2.78;;;20.20;99.90;;;;;;5072745;28;20167;-61
2023/08/05 11:58:16;;;;;;;8.73;3.58;;;20.20;99.90;;;;;;5072290;28;20115;-63
2023/08/05 12:00:53;;;;;;;6.45;3.75;;;20.10;99.90;;;;;;5071039;28;20412;-65
2023/08/05 12:03:19;;;;;;;5.95;3.30;;;19.80;99.90;;;;;;5072900;28;20103;-64
2023/08/05 12:05:46;;;;;;;6.50;3.33;;;19.60;99.90;;;;;;5070526;28;20457;-64
2023/08/05 12:08:13;;;;;;;5.72;3.60;;;19.30;99.90;;;;;;5072872;28;20049;-64
2023/08/05 12:10:39;;;;;;;7.45;4.20;;;19.10;99.90;;;;;;5072705;28;20041;-63
2023/08/05 12:13:08;;;;;;;10.45;5.13;;;19.00;99.90;;;;;;5070682;28;20055;-63
2023/08/05 12:15:34;;;;;;;9.13;4.57;;;18.80;99.90;;;;;;5071126;28;20041;-62
2023/08/05 12:18:05;;;;;;;9.45;5.03;;;18.70;99.90;;;;;;5071091;28;20047;-63
2023/08/05 12:20:30;;;;;;;11.23;4.50;;;18.50;99.90;;;;;;5053731;28;20094;-63
2023/08/05 12:22:58;;;;;;;7.57;4.10;;;18.40;99.90;;;;;;5071249;28;20048;-63
2023/08/05 12:25:25;;;;;;;9.38;4.93;;;18.30;99.90;;;;;;5072666;28;20120;-63
2023/08/05 12:27:51;;;;;;;7.78;4.45;;;18.20;99.90;;;;;;5071096;28;20106;-64
2023/08/05 12:30:17;;;;;;;9.60;4.50;;;18.20;99.90;;;;;;5072499;28;20481;-63
2023/08/05 12:32:43;;;;;;;6.68;4.35;;;18.10;99.90;;;;;;5071011;28;20041;-63
2023/08/05 12:35:10;;;;;;;8.50;4.50;;;18.00;99.90;;;;;;5054443;28;20106;-63
2023/08/05 12:37:37;;;;;;;8.10;5.05;;;18.00;99.90;;;;;;5071131;28;20393;-62
2023/08/05 12:40:04;;;;;;;8.82;5.10;;;17.90;99.90;;;;;;5071272;28;20123;-63
2023/08/05 12:42:30;;;;;;;6.90;4.80;;;17.80;99.90;;;;;;5070853;28;20044;-63
2023/08/05 12:44:59;;;;;;;8.20;4.82;;;17.80;99.90;;;;;;5070785;28;20552;-63
2023/08/05 12:47:24;;;;;;;7.03;4.53;;;17.70;99.90;;;;;;5070069;28;20056;-63